Time;durP1;ratioP1;P1;durP2;ratioP2;P2;SDS_P1;SDS_P2;PMS_P1;PMS_P2;Temp;Humidity;BMP_temperature;BMP_pressure;BME280_temperature;BME280_humidity;BME280_pressure;Samples;Min_cycle;Max_cycle;Signal;HPM_P1;HPM_P2
2023/04/16 00:01:51;;;;;;;5.97;4.88;;;10.20;99.90;;;;;;5043646;28;20232;-81
2023/04/16 00:04:40;;;;;;;6.07;4.55;;;10.00;99.90;;;;;;5036688;28;20353;-80
2023/04/16 00:07:30;;;;;;;6.20;4.60;;;10.00;99.90;;;;;;5021371;28;20237;-77
2023/04/16 00:10:19;;;;;;;6.95;4.75;;;10.20;99.90;;;;;;5031915;28;20232;-77
2023/04/16 00:13:08;;;;;;;5.72;4.28;;;10.20;99.90;;;;;;5026269;28;20214;-77
2023/04/16 00:15:57;;;;;;;6.40;4.55;;;10.20;99.90;;;;;;5035215;28;20240;-76
2023/04/16 00:18:46;;;;;;;5.75;4.38;;;10.10;99.90;;;;;;5044846;28;20229;-76
2023/04/16 00:21:35;;;;;;;6.10;4.72;;;10.10;99.90;;;;;;5047344;28;20229;-77
2023/04/16 00:24:25;;;;;;;7.00;4.43;;;10.40;99.90;;;;;;5040427;28;20303;-78
2023/04/16 00:27:14;;;;;;;5.28;4.38;;;10.40;99.90;;;;;;5041827;28;20252;-80
2023/04/16 00:30:03;;;;;;;6.22;4.53;;;10.30;99.90;;;;;;5036132;28;20233;-80
2023/04/16 00:32:52;;;;;;;6.57;4.78;;;10.10;99.90;;;;;;5026860;28;20290;-80
2023/04/16 00:35:41;;;;;;;5.40;4.70;;;10.10;99.90;;;;;;5047302;28;20233;-81
2023/04/16 00:38:31;;;;;;;6.55;4.43;;;10.20;99.90;;;;;;5039206;28;20728;-80
2023/04/16 00:41:21;;;;;;;5.32;4.00;;;10.20;99.90;;;;;;5049705;28;20224;-80
2023/04/16 00:44:10;;;;;;;5.63;4.30;;;10.10;99.90;;;;;;5036426;28;20228;-82
2023/04/16 00:47:00;;;;;;;6.35;4.35;;;10.00;99.90;;;;;;5024966;28;20320;-77
2023/04/16 00:49:49;;;;;;;6.65;4.30;;;9.90;99.90;;;;;;5045513;28;20381;-78
2023/04/16 00:52:38;;;;;;;5.80;4.70;;;9.90;99.90;;;;;;5024123;28;20226;-77
2023/04/16 00:55:27;;;;;;;5.00;4.40;;;9.80;99.90;;;;;;5054989;28;20739;-78
2023/04/16 00:58:18;;;;;;;6.82;5.28;;;9.80;99.90;;;;;;5029712;28;20243;-77
2023/04/16 01:01:07;;;;;;;5.05;4.28;;;9.90;99.90;;;;;;5026396;28;20225;-79
2023/04/16 01:03:56;;;;;;;4.68;4.13;;;9.90;99.90;;;;;;5041001;28;20525;-79
2023/04/16 01:06:47;;;;;;;6.90;4.30;;;9.80;99.90;;;;;;5044330;28;20221;-76
2023/04/16 01:09:36;;;;;;;7.43;4.05;;;10.00;99.90;;;;;;5037773;28;20288;-78
2023/04/16 01:12:25;;;;;;;5.20;3.95;;;10.10;99.90;;;;;;5038411;28;20221;-76
2023/04/16 01:15:15;;;;;;;6.28;4.32;;;10.00;99.90;;;;;;5020296;28;20225;-77
2023/04/16 01:18:13;;;;;;;6.65;4.63;;;9.80;99.90;;;;;;5037522;28;20229;-76
2023/04/16 01:21:03;;;;;;;6.10;4.72;;;9.80;99.90;;;;;;5031427;28;20244;-78
2023/04/16 01:23:52;;;;;;;5.82;4.85;;;9.90;99.90;;;;;;5020717;28;20240;-81
2023/04/16 01:26:41;;;;;;;8.27;5.15;;;10.00;99.90;;;;;;5034232;28;20309;-76
2023/04/16 01:29:30;;;;;;;6.57;5.30;;;10.10;99.90;;;;;;5028685;28;20279;-83
2023/04/16 01:32:20;;;;;;;6.78;5.43;;;10.00;99.90;;;;;;5019104;28;20706;-84
2023/04/16 01:35:09;;;;;;;10.00;5.30;;;9.90;99.90;;;;;;5030436;28;20226;-84
2023/04/16 01:37:59;;;;;;;6.47;4.97;;;9.80;99.90;;;;;;5041478;28;20308;-89
2023/04/16 01:40:48;;;;;;;5.80;5.20;;;9.70;99.90;;;;;;5044949;28;20245;-86
2023/04/16 01:43:37;;;;;;;5.43;4.78;;;9.80;99.90;;;;;;5046161;28;20244;-84
2023/04/16 01:46:29;;;;;;;6.53;4.80;;;9.60;99.90;;;;;;5032297;28;20875;-83
2023/04/16 01:49:18;;;;;;;6.32;5.20;;;9.60;99.90;;;;;;5041876;28;20228;-84
2023/04/16 01:52:07;;;;;;;6.03;5.03;;;9.60;99.90;;;;;;5045504;28;20367;-79
2023/04/16 01:54:57;;;;;;;5.80;5.07;;;9.50;99.90;;;;;;5046092;28;20314;-83
2023/04/16 01:57:46;;;;;;;7.68;5.60;;;9.60;99.90;;;;;;5046580;28;20229;-81
2023/04/16 02:00:36;;;;;;;5.25;4.65;;;9.50;99.90;;;;;;5051767;28;20744;-81
2023/04/16 02:03:25;;;;;;;5.68;4.93;;;9.70;99.90;;;;;;5011019;28;20360;-81
2023/04/16 02:06:15;;;;;;;6.63;4.97;;;9.60;99.90;;;;;;5013628;28;20226;-81
2023/04/16 02:09:04;;;;;;;6.38;5.28;;;9.80;99.90;;;;;;5019971;28;20522;-83
2023/04/16 02:11:54;;;;;;;5.70;5.10;;;9.70;99.90;;;;;;5025830;28;20225;-79
2023/04/16 02:14:43;;;;;;;6.80;6.00;;;9.80;99.90;;;;;;5028785;28;20232;-80
2023/04/16 02:17:36;;;;;;;6.57;5.80;;;9.80;99.90;;;;;;5021465;28;20244;-80
2023/04/16 02:20:30;;;;;;;5.95;5.10;;;9.80;99.90;;;;;;5038469;28;20224;-81
2023/04/16 02:23:20;;;;;;;7.22;5.60;;;9.90;99.90;;;;;;5031216;28;20326;-80
2023/04/16 02:26:11;;;;;;;6.43;5.20;;;9.80;99.90;;;;;;5039105;28;20233;-80
2023/04/16 02:29:02;;;;;;;5.60;5.00;;;9.90;99.90;;;;;;5028511;28;20220;-78
2023/04/16 02:31:58;;;;;;;6.70;5.13;;;10.00;99.90;;;;;;5018677;28;20247;-78
2023/04/16 02:34:48;;;;;;;6.18;5.22;;;10.00;99.90;;;;;;5032908;28;20232;-78
2023/04/16 02:37:39;;;;;;;6.20;5.10;;;9.80;99.90;;;;;;5033634;28;20771;-81
2023/04/16 02:40:29;;;;;;;6.00;5.40;;;9.80;99.90;;;;;;5021948;28;20242;-80
2023/04/16 02:43:19;;;;;;;6.82;5.28;;;9.60;99.90;;;;;;5038235;28;20225;-79
2023/04/16 02:46:09;;;;;;;7.10;5.70;;;9.70;99.90;;;;;;5039012;28;20220;-78
2023/04/16 02:48:57;;;;;;;6.13;5.32;;;9.80;99.90;;;;;;5038647;28;20224;-81
2023/04/16 02:51:46;;;;;;;7.25;5.78;;;9.80;99.90;;;;;;5032793;28;20391;-82
2023/04/16 02:54:35;;;;;;;7.13;5.85;;;9.80;99.90;;;;;;5022995;28;20247;-82
2023/04/16 02:57:24;;;;;;;7.80;6.03;;;9.60;99.90;;;;;;5040196;28;20233;-84
2023/04/16 03:00:14;;;;;;;9.57;6.53;;;9.60;99.90;;;;;;5040713;28;20286;-84
2023/04/16 03:03:16;;;;;;;7.53;6.25;;;9.60;99.90;;;;;;5028830;28;20811;-84
2023/04/16 03:06:05;;;;;;;8.43;6.18;;;9.60;99.90;;;;;;5038461;28;20224;-83
2023/04/16 03:08:54;;;;;;;9.50;6.53;;;9.70;99.90;;;;;;5041040;28;20224;-84
2023/04/16 03:11:43;;;;;;;7.13;6.38;;;9.60;99.90;;;;;;5036560;28;20233;-86
2023/04/16 03:14:32;;;;;;;7.70;6.60;;;9.70;99.90;;;;;;5022354;28;20248;-84
2023/04/16 03:17:21;;;;;;;10.30;6.75;;;9.60;99.90;;;;;;5028403;28;20330;-83
2023/04/16 03:20:13;;;;;;;9.55;6.93;;;9.60;99.90;;;;;;5031433;28;20228;-85
2023/04/16 03:23:02;;;;;;;8.80;7.13;;;9.60;99.90;;;;;;5045815;28;20212;-84
2023/04/16 03:25:51;;;;;;;8.52;6.70;;;9.50;99.90;;;;;;5049848;28;20251;-82
2023/04/16 03:28:40;;;;;;;8.93;7.03;;;9.50;99.90;;;;;;5041652;28;20221;-81
2023/04/16 03:31:29;;;;;;;9.27;7.40;;;9.80;99.90;;;;;;5043757;28;20228;-83
2023/04/16 03:34:19;;;;;;;8.00;6.88;;;9.70;99.90;;;;;;5029012;28;20342;-83
2023/04/16 03:37:11;;;;;;;9.15;7.60;;;9.90;99.90;;;;;;5024939;28;20221;-83
2023/04/16 03:40:02;;;;;;;9.73;8.68;;;9.80;99.90;;;;;;5044353;28;20220;-83
2023/04/16 03:42:52;;;;;;;8.93;7.72;;;9.80;99.90;;;;;;5026494;28;20314;-84
2023/04/16 03:45:44;;;;;;;8.55;7.20;;;9.80;99.90;;;;;;5028284;28;21159;-83
2023/04/16 03:48:33;;;;;;;10.00;7.60;;;9.90;99.90;;;;;;5026921;28;20275;-82
2023/04/16 03:51:22;;;;;;;8.45;7.20;;;10.00;99.90;;;;;;5035307;28;20311;-81
2023/04/16 03:54:14;;;;;;;11.30;7.68;;;10.00;99.90;;;;;;5026991;28;20225;-82
2023/04/16 03:57:08;;;;;;;11.10;8.15;;;10.00;99.90;;;;;;5024818;28;20220;-80
2023/04/16 03:59:56;;;;;;;9.93;8.10;;;9.90;99.90;;;;;;5044240;28;20217;-81
2023/04/16 04:02:48;;;;;;;9.57;8.32;;;9.90;99.90;;;;;;5022781;28;20229;-82
2023/04/16 04:05:41;;;;;;;10.85;7.97;;;10.10;99.90;;;;;;5025844;28;20289;-81
2023/04/16 04:08:32;;;;;;;11.27;8.95;;;9.90;99.90;;;;;;5025426;28;20247;-81
2023/04/16 04:11:22;;;;;;;11.60;9.10;;;9.80;99.90;;;;;;5024304;28;20266;-81
2023/04/16 04:14:14;;;;;;;11.48;9.63;;;9.70;99.90;;;;;;5021395;28;20221;-82
2023/04/16 04:17:02;;;;;;;12.50;8.95;;;9.70;99.90;;;;;;5043939;28;20261;-82
2023/04/16 04:19:52;;;;;;;10.18;8.90;;;9.70;99.90;;;;;;5038683;28;20311;-80
2023/04/16 04:22:51;;;;;;;13.23;10.20;;;9.90;99.90;;;;;;5025766;28;20608;-78
2023/04/16 04:25:44;;;;;;;13.73;9.27;;;9.90;99.90;;;;;;5024704;28;20253;-76
2023/04/16 04:28:35;;;;;;;12.38;9.45;;;9.90;99.90;;;;;;5038329;28;20229;-77
2023/04/16 04:31:25;;;;;;;12.32;8.63;;;10.00;99.90;;;;;;5015789;28;20659;-76
2023/04/16 04:34:14;;;;;;;11.55;8.93;;;10.10;99.90;;;;;;5023974;28;20206;-78
2023/04/16 04:37:03;;;;;;;9.75;8.55;;;10.10;99.90;;;;;;5022605;28;20223;-80
2023/04/16 04:39:52;;;;;;;12.27;8.25;;;10.20;99.90;;;;;;5054541;28;20741;-81
2023/04/16 04:42:41;;;;;;;11.77;8.38;;;10.40;99.90;;;;;;5033824;28;20565;-83
2023/04/16 04:45:32;;;;;;;10.30;8.77;;;10.10;99.90;;;;;;5022755;28;20224;-79
2023/04/16 04:48:25;;;;;;;11.23;8.82;;;10.20;99.90;;;;;;5029662;28;20213;-78
2023/04/16 04:51:15;;;;;;;9.52;8.07;;;10.40;99.90;;;;;;5045628;28;20221;-81
2023/04/16 04:54:06;;;;;;;10.40;8.82;;;10.30;99.90;;;;;;5030841;28;20581;-80
2023/04/16 04:56:55;;;;;;;11.68;8.23;;;10.20;99.90;;;;;;5033391;28;20222;-79
2023/04/16 04:59:44;;;;;;;8.98;8.02;;;10.30;99.90;;;;;;5018037;28;20248;-78
2023/04/16 05:02:36;;;;;;;9.82;8.73;;;10.40;99.90;;;;;;5048108;28;20869;-79
2023/04/16 05:05:25;;;;;;;10.57;8.90;;;10.60;99.90;;;;;;5041368;28;20224;-75
2023/04/16 05:08:14;;;;;;;11.55;8.63;;;10.50;99.90;;;;;;5033625;28;20217;-77
2023/04/16 05:11:03;;;;;;;10.55;8.23;;;10.30;99.90;;;;;;5040953;28;20222;-81
2023/04/16 05:13:52;;;;;;;10.23;8.68;;;10.30;99.90;;;;;;5018636;28;20244;-80
2023/04/16 05:16:41;;;;;;;10.93;8.65;;;10.20;99.90;;;;;;5009839;28;20376;-80
2023/04/16 05:19:31;;;;;;;10.95;8.95;;;10.40;99.90;;;;;;5040254;28;20735;-80
2023/04/16 05:22:20;;;;;;;11.25;9.25;;;10.50;99.90;;;;;;5038294;28;20346;-81
2023/04/16 05:25:09;;;;;;;9.95;8.65;;;10.60;99.90;;;;;;5030769;28;20209;-81
2023/04/16 05:27:58;;;;;;;10.82;9.10;;;10.70;99.90;;;;;;5038520;28;20217;-82
2023/04/16 05:30:47;;;;;;;11.65;9.07;;;10.30;99.90;;;;;;5028871;28;20228;-82
2023/04/16 05:33:35;;;;;;;12.65;9.95;;;10.30;99.90;;;;;;5036507;28;20362;-83
2023/04/16 05:36:26;;;;;;;12.35;10.00;;;10.50;99.90;;;;;;5027562;28;20628;-79
2023/04/16 05:39:17;;;;;;;12.35;9.73;;;10.50;99.90;;;;;;5041972;28;20232;-80
2023/04/16 05:42:06;;;;;;;10.80;9.20;;;10.50;99.90;;;;;;5043789;28;20229;-82
2023/04/16 05:44:55;;;;;;;11.80;9.55;;;10.30;99.90;;;;;;5030916;28;20252;-77
2023/04/16 05:47:44;;;;;;;11.88;9.52;;;10.50;99.90;;;;;;5030432;28;20263;-80
2023/04/16 05:50:33;;;;;;;11.95;10.40;;;10.50;99.90;;;;;;5033598;28;20221;-79
2023/04/16 05:53:23;;;;;;;11.23;9.70;;;10.50;99.90;;;;;;5043595;28;20231;-82
2023/04/16 05:56:14;;;;;;;11.55;9.18;;;10.60;99.90;;;;;;5017519;28;20230;-78
2023/04/16 05:59:02;;;;;;;10.75;9.48;;;10.50;99.90;;;;;;5040725;28;20429;-78
2023/04/16 06:01:51;;;;;;;11.73;10.18;;;10.50;99.90;;;;;;5038779;28;20229;-78
2023/04/16 06:04:40;;;;;;;14.13;9.85;;;10.20;99.90;;;;;;5039265;28;20225;-77
2023/04/16 06:07:29;;;;;;;11.18;9.95;;;10.40;99.90;;;;;;5034662;28;20771;-82
2023/04/16 06:10:19;;;;;;;11.38;9.82;;;10.50;99.90;;;;;;5041176;28;20268;-80
2023/04/16 06:13:08;;;;;;;11.13;9.18;;;10.50;99.90;;;;;;5033989;28;20239;-80
2023/04/16 06:15:57;;;;;;;11.70;9.63;;;10.50;99.90;;;;;;5038033;28;20300;-79
2023/04/16 06:18:46;;;;;;;11.82;9.57;;;10.50;99.90;;;;;;5035491;28;20233;-78
2023/04/16 06:21:36;;;;;;;12.18;9.73;;;10.60;99.90;;;;;;5041829;28;20236;-79
2023/04/16 06:24:25;;;;;;;11.50;10.30;;;10.40;99.90;;;;;;5035505;28;20661;-82
2023/04/16 06:27:16;;;;;;;14.40;10.65;;;10.20;99.90;;;;;;5037789;28;20575;-86
2023/04/16 06:30:06;;;;;;;11.00;9.85;;;10.50;99.90;;;;;;5031902;28;20233;-84
2023/04/16 06:32:55;;;;;;;12.45;10.60;;;10.40;99.90;;;;;;5018625;28;20232;-80
2023/04/16 06:35:44;;;;;;;12.30;10.45;;;10.50;99.90;;;;;;5011154;28;20217;-81
2023/04/16 06:38:32;;;;;;;10.95;9.85;;;10.70;99.90;;;;;;5032187;28;20268;-84
2023/04/16 06:41:24;;;;;;;12.10;10.02;;;10.80;99.90;;;;;;5036196;28;20225;-80
2023/04/16 06:44:16;;;;;;;13.52;10.05;;;10.50;99.90;;;;;;5023215;28;21422;-80
2023/04/16 06:47:05;;;;;;;11.20;10.05;;;10.70;99.90;;;;;;5036037;28;20228;-77
2023/04/16 06:49:54;;;;;;;14.07;11.10;;;10.70;99.90;;;;;;5024645;28;20429;-82
2023/04/16 06:52:43;;;;;;;13.20;11.82;;;10.70;99.90;;;;;;5027446;28;20225;-81
2023/04/16 06:55:32;;;;;;;14.75;10.88;;;10.90;99.90;;;;;;5034374;28;20217;-78
2023/04/16 06:58:21;;;;;;;12.02;10.50;;;10.70;99.90;;;;;;5033762;28;20232;-81
2023/04/16 07:01:11;;;;;;;11.15;9.63;;;10.90;99.90;;;;;;5027367;28;20225;-80
2023/04/16 07:04:03;;;;;;;13.88;10.48;;;11.00;99.90;;;;;;5022169;28;20685;-86
2023/04/16 07:06:51;;;;;;;10.85;9.75;;;11.10;99.90;;;;;;5024899;28;20229;-86
2023/04/16 07:09:40;;;;;;;10.63;9.63;;;11.10;99.90;;;;;;5023691;28;20235;-83
2023/04/16 07:12:30;;;;;;;10.75;9.30;;;11.10;99.90;;;;;;5039266;28;20232;-85
2023/04/16 07:15:19;;;;;;;10.77;9.38;;;11.10;99.90;;;;;;5039511;28;20774;-85
2023/04/16 07:18:09;;;;;;;9.57;8.63;;;11.30;99.90;;;;;;5019465;28;20232;-78
2023/04/16 07:21:01;;;;;;;10.18;8.27;;;11.10;99.90;;;;;;5029262;28;20248;-77
2023/04/16 07:23:49;;;;;;;9.90;8.43;;;11.00;99.90;;;;;;5031031;28;20231;-81
2023/04/16 07:26:38;;;;;;;10.35;8.48;;;11.10;99.90;;;;;;5046623;28;20228;-84
2023/04/16 07:29:27;;;;;;;10.52;9.43;;;11.30;99.90;;;;;;5024142;28;20681;-76
2023/04/16 07:32:16;;;;;;;11.43;9.30;;;11.10;99.90;;;;;;5029909;28;20233;-82
2023/04/16 07:35:07;;;;;;;12.68;10.48;;;11.20;99.90;;;;;;5044554;28;20224;-82
2023/04/16 07:37:56;;;;;;;11.57;10.02;;;11.20;99.90;;;;;;5037599;28;20324;-81
2023/04/16 07:40:45;;;;;;;12.27;9.38;;;11.20;99.90;;;;;;5033683;28;20329;-82
2023/04/16 07:43:33;;;;;;;10.30;9.23;;;11.00;99.90;;;;;;5040458;28;20243;-82
2023/04/16 07:46:22;;;;;;;10.07;9.07;;;11.20;99.90;;;;;;5020586;28;20217;-81
2023/04/16 07:49:15;;;;;;;13.05;8.70;;;11.40;99.90;;;;;;5010839;28;20232;-81
2023/04/16 07:52:05;;;;;;;9.32;8.40;;;11.10;99.90;;;;;;5030878;28;20245;-80
2023/04/16 07:54:54;;;;;;;10.15;8.93;;;11.30;99.90;;;;;;5019244;28;20216;-81
2023/04/16 07:57:43;;;;;;;10.25;9.00;;;11.30;99.90;;;;;;5034547;28;20309;-80
2023/04/16 08:00:32;;;;;;;11.25;9.00;;;11.50;99.90;;;;;;5022150;28;20233;-81
2023/04/16 08:03:21;;;;;;;10.23;9.18;;;11.50;99.90;;;;;;5005565;28;20243;-79
2023/04/16 08:06:10;;;;;;;10.52;9.20;;;11.50;99.90;;;;;;5032432;28;20883;-82
2023/04/16 08:09:02;;;;;;;10.55;9.43;;;11.70;99.90;;;;;;5041866;28;20216;-81
2023/04/16 08:11:51;;;;;;;9.65;8.65;;;11.70;99.90;;;;;;5044599;28;20351;-81
2023/04/16 08:14:40;;;;;;;12.88;8.80;;;11.70;99.90;;;;;;5034893;28;20450;-81
2023/04/16 08:17:29;;;;;;;10.57;8.38;;;11.70;99.90;;;;;;5024233;28;20298;-81
2023/04/16 08:20:18;;;;;;;10.88;8.68;;;11.60;99.90;;;;;;5041792;28;20225;-81
2023/04/16 08:23:07;;;;;;;9.82;7.72;;;11.70;99.90;;;;;;5045700;28;20235;-81
2023/04/16 08:25:57;;;;;;;9.60;7.90;;;11.60;99.90;;;;;;5033471;28;20240;-81
2023/04/16 08:28:46;;;;;;;10.27;8.27;;;11.70;99.90;;;;;;5033571;28;20232;-79
2023/04/16 08:31:35;;;;;;;9.20;7.82;;;11.80;99.90;;;;;;5019229;28;20222;-80
2023/04/16 08:34:24;;;;;;;9.63;8.35;;;11.80;99.90;;;;;;5027607;28;20355;-80
2023/04/16 08:37:14;;;;;;;10.82;8.07;;;12.20;99.90;;;;;;5037548;28;20237;-80
2023/04/16 08:40:04;;;;;;;10.20;7.80;;;12.30;99.90;;;;;;5033704;28;20225;-80
2023/04/16 08:42:58;;;;;;;9.02;8.07;;;12.30;99.90;;;;;;5023676;28;20233;-80
2023/04/16 08:45:48;;;;;;;10.40;9.00;;;12.50;99.90;;;;;;5014663;28;20375;-82
2023/04/16 08:48:37;;;;;;;11.43;8.55;;;12.60;99.90;;;;;;5028123;28;20323;-80
2023/04/16 08:51:33;;;;;;;9.07;8.18;;;12.30;99.90;;;;;;5022528;28;20224;-81
2023/04/16 08:54:36;;;;;;;8.35;7.47;;;12.30;99.90;;;;;;5031877;28;20316;-82
2023/04/16 08:57:30;;;;;;;8.27;7.43;;;12.40;99.90;;;;;;5009402;28;20359;-79
2023/04/16 09:00:21;;;;;;;9.13;7.30;;;12.40;99.90;;;;;;5031248;28;20286;-79
2023/04/16 09:03:10;;;;;;;8.00;7.10;;;12.60;99.90;;;;;;5009206;28;20222;-79
2023/04/16 09:06:01;;;;;;;7.78;6.88;;;12.50;99.90;;;;;;5026534;28;20238;-78
2023/04/16 09:08:52;;;;;;;8.35;7.18;;;12.50;99.90;;;;;;5017783;28;20221;-81
2023/04/16 09:11:43;;;;;;;8.02;7.13;;;12.60;99.90;;;;;;5026588;28;20874;-81
2023/04/16 09:14:32;;;;;;;8.00;7.05;;;12.60;99.90;;;;;;5024150;28;20282;-84
2023/04/16 09:17:22;;;;;;;8.70;7.18;;;12.70;99.90;;;;;;5035910;28;20245;-74
2023/04/16 09:20:11;;;;;;;10.50;7.47;;;12.80;99.90;;;;;;5039173;28;20236;-80
2023/04/16 09:23:02;;;;;;;8.25;7.45;;;12.80;99.90;;;;;;5035748;28;20221;-79
2023/04/16 09:25:51;;;;;;;8.23;7.43;;;12.70;99.90;;;;;;5021580;28;20225;-80
2023/04/16 09:28:42;;;;;;;8.85;7.15;;;12.90;99.90;;;;;;5024581;28;20283;-79
2023/04/16 09:31:31;;;;;;;7.68;6.88;;;13.10;99.90;;;;;;5021855;28;20313;-79
2023/04/16 09:34:21;;;;;;;11.93;7.68;;;12.90;99.90;;;;;;5020806;28;20592;-79
2023/04/16 09:37:16;;;;;;;10.77;8.27;;;13.00;99.90;;;;;;5032953;28;20319;-79
2023/04/16 09:40:06;;;;;;;10.13;9.13;;;13.10;99.90;;;;;;5014699;28;20264;-79
2023/04/16 09:42:59;;;;;;;8.85;7.85;;;13.30;99.90;;;;;;5017272;28;20237;-80
2023/04/16 09:45:50;;;;;;;10.93;8.25;;;13.30;99.90;;;;;;5044108;28;20696;-74
2023/04/16 09:48:39;;;;;;;9.77;8.88;;;13.20;99.90;;;;;;5037535;28;20704;-74
2023/04/16 09:51:37;;;;;;;10.45;9.35;;;13.20;99.90;;;;;;5024111;28;20234;-75
2023/04/16 09:54:26;;;;;;;10.23;9.13;;;13.20;99.90;;;;;;5032214;28;20704;-77
2023/04/16 09:57:15;;;;;;;9.40;8.20;;;13.10;99.90;;;;;;5037915;28;20707;-77
2023/04/16 10:00:07;;;;;;;10.52;8.20;;;13.30;99.90;;;;;;5013067;28;20243;-78
2023/04/16 10:03:05;;;;;;;10.90;8.70;;;13.30;99.90;;;;;;5013212;28;20291;-77
2023/04/16 10:05:54;;;;;;;9.35;8.02;;;13.30;99.90;;;;;;5041933;28;20248;-78
2023/04/16 10:08:49;;;;;;;9.38;8.40;;;13.20;99.90;;;;;;5021210;28;20601;-79
2023/04/16 10:11:39;;;;;;;10.52;8.50;;;13.20;99.90;;;;;;5016221;28;20237;-80
2023/04/16 10:14:28;;;;;;;9.98;8.23;;;13.40;99.90;;;;;;5030583;28;20717;-78
2023/04/16 10:17:17;;;;;;;9.15;7.63;;;13.40;99.90;;;;;;5019258;28;20221;-77
2023/04/16 10:20:08;;;;;;;8.57;7.68;;;13.40;99.90;;;;;;5021710;28;20232;-79
2023/04/16 10:22:57;;;;;;;10.93;7.85;;;13.40;99.90;;;;;;5040881;28;20323;-80
2023/04/16 10:25:48;;;;;;;9.13;8.23;;;13.20;99.90;;;;;;5035903;28;20378;-76
2023/04/16 10:28:37;;;;;;;9.73;8.70;;;13.10;99.90;;;;;;5044632;28;20220;-76
2023/04/16 10:31:27;;;;;;;9.02;8.05;;;13.30;99.90;;;;;;5035565;28;20240;-80
2023/04/16 10:34:17;;;;;;;9.18;8.20;;;13.20;99.90;;;;;;5026766;28;20306;-79
2023/04/16 10:37:06;;;;;;;8.80;7.90;;;13.30;99.90;;;;;;5018053;28;20280;-81
2023/04/16 10:39:55;;;;;;;8.55;7.63;;;13.00;99.90;;;;;;5026713;28;20225;-80
2023/04/16 10:42:54;;;;;;;8.90;8.00;;;12.80;99.90;;;;;;5036925;28;20236;-79
2023/04/16 10:45:43;;;;;;;8.90;8.00;;;12.80;99.90;;;;;;5021641;28;20240;-80
2023/04/16 10:48:32;;;;;;;9.98;8.10;;;12.90;99.90;;;;;;5038621;28;20217;-80
2023/04/16 10:51:37;;;;;;;9.25;8.30;;;13.00;99.90;;;;;;5040770;28;20286;-76
2023/04/16 10:54:27;;;;;;;8.80;8.00;;;12.90;99.90;;;;;;5040608;28;20719;-80
2023/04/16 10:57:17;;;;;;;8.73;7.93;;;13.30;99.90;;;;;;5038231;28;20303;-79
2023/04/16 11:00:23;;;;;;;10.00;8.43;;;13.20;99.90;;;;;;5010506;28;20253;-77
2023/04/16 11:03:11;;;;;;;12.15;8.07;;;13.30;99.90;;;;;;5018252;28;20328;-81
2023/04/16 11:06:15;;;;;;;9.80;8.57;;;13.40;99.90;;;;;;5029906;28;21076;-80
2023/04/16 11:09:04;;;;;;;11.65;9.02;;;13.60;99.90;;;;;;5008372;28;20236;-80
2023/04/16 11:11:53;;;;;;;11.75;8.13;;;13.80;99.90;;;;;;5023234;28;20240;-79
2023/04/16 11:14:43;;;;;;;10.52;8.85;;;13.70;99.90;;;;;;5036659;28;20353;-79
2023/04/16 11:17:37;;;;;;;8.13;7.32;;;13.60;99.90;;;;;;5034920;28;20699;-78
2023/04/16 11:20:27;;;;;;;8.55;7.75;;;13.80;99.90;;;;;;5039771;28;20231;-81
2023/04/16 11:23:16;;;;;;;9.05;7.93;;;13.80;99.90;;;;;;5039176;28;20891;-78
2023/04/16 11:26:05;;;;;;;9.88;8.05;;;13.60;99.90;;;;;;5038544;28;20220;-79
2023/04/16 11:28:55;;;;;;;8.55;7.60;;;13.60;99.90;;;;;;5023502;28;20259;-77
2023/04/16 11:31:50;;;;;;;8.70;7.88;;;13.60;99.90;;;;;;5034382;28;20231;-78
2023/04/16 11:34:47;;;;;;;8.20;7.40;;;13.60;99.90;;;;;;5041477;28;20250;-77
2023/04/16 11:37:37;;;;;;;8.65;7.43;;;13.70;99.90;;;;;;5040963;28;20236;-78
2023/04/16 11:40:30;;;;;;;9.07;7.72;;;14.10;99.90;;;;;;5021219;28;20216;-79
2023/04/16 11:43:18;;;;;;;7.80;7.10;;;14.00;99.90;;;;;;5053858;28;21047;-79
2023/04/16 11:46:07;;;;;;;9.45;7.15;;;13.90;99.90;;;;;;5029346;28;20221;-78
2023/04/16 11:49:16;;;;;;;8.13;6.82;;;15.40;99.90;;;;;;5031958;28;20358;-79
2023/04/16 11:52:06;;;;;;;7.82;6.22;;;18.70;99.90;;;;;;5007549;28;20217;-78
2023/04/16 11:54:55;;;;;;;7.38;6.45;;;17.70;99.90;;;;;;5023576;28;20683;-79
2023/04/16 11:57:44;;;;;;;7.68;6.97;;;15.70;99.90;;;;;;5015979;28;20639;-79
2023/04/16 12:00:35;;;;;;;8.20;6.43;;;15.60;99.90;;;;;;5035387;28;20220;-80
2023/04/16 12:03:39;;;;;;;7.95;7.13;;;15.50;99.90;;;;;;5042952;28;20415;-80
2023/04/16 12:06:28;;;;;;;8.57;6.70;;;15.40;99.90;;;;;;5029359;28;20794;-79
2023/04/16 12:09:25;;;;;;;7.90;7.13;;;15.70;99.90;;;;;;5036225;28;20225;-78
2023/04/16 12:12:29;;;;;;;8.10;7.30;;;15.70;99.90;;;;;;5028005;28;20221;-79
2023/04/16 12:15:19;;;;;;;7.57;6.78;;;15.30;99.90;;;;;;5040564;28;20269;-78
2023/04/16 12:18:09;;;;;;;6.63;6.03;;;14.80;99.90;;;;;;5040779;28;20720;-78
2023/04/16 12:20:57;;;;;;;7.00;6.03;;;14.80;99.90;;;;;;5027584;28;20233;-79
2023/04/16 12:23:46;;;;;;;6.88;6.20;;;14.80;99.90;;;;;;5019752;28;20858;-79
2023/04/16 12:26:41;;;;;;;7.03;6.32;;;14.80;99.90;;;;;;5035262;28;20296;-79
2023/04/16 12:29:30;;;;;;;7.88;6.57;;;15.00;99.90;;;;;;5020477;28;20362;-79
2023/04/16 12:32:23;;;;;;;8.30;6.70;;;15.00;99.90;;;;;;5032175;28;20228;-79
2023/04/16 12:35:13;;;;;;;7.35;6.45;;;14.80;99.90;;;;;;5028847;28;20237;-78
2023/04/16 12:38:02;;;;;;;7.18;6.47;;;15.10;99.90;;;;;;5037660;28;20260;-79
2023/04/16 12:40:51;;;;;;;6.75;6.15;;;15.10;99.90;;;;;;5030374;28;20221;-82
2023/04/16 12:43:41;;;;;;;8.38;7.15;;;15.30;99.90;;;;;;5035552;28;20220;-76
2023/04/16 12:46:30;;;;;;;11.07;7.18;;;15.20;99.90;;;;;;5045478;28;20228;-77
2023/04/16 12:49:19;;;;;;;6.97;6.25;;;15.30;99.90;;;;;;5028010;28;20240;-76
2023/04/16 12:52:08;;;;;;;9.60;7.13;;;15.40;99.90;;;;;;5033822;28;20888;-80
2023/04/16 12:54:57;;;;;;;8.25;7.00;;;15.40;99.90;;;;;;5035941;28;20225;-78
2023/04/16 12:57:47;;;;;;;7.35;6.43;;;15.60;99.90;;;;;;5043308;28;20217;-78
2023/04/16 13:00:38;;;;;;;7.60;6.80;;;15.30;99.90;;;;;;5026023;28;20589;-79
2023/04/16 13:03:26;;;;;;;8.93;6.32;;;15.40;99.90;;;;;;5011961;28;20229;-79
2023/04/16 13:06:16;;;;;;;8.05;6.35;;;15.20;99.90;;;;;;5038435;28;20296;-79
2023/04/16 13:09:05;;;;;;;7.72;7.03;;;15.00;99.90;;;;;;5040730;28;20668;-79
2023/04/16 13:11:54;;;;;;;6.55;5.95;;;15.00;99.90;;;;;;5031006;28;20725;-79
2023/04/16 13:14:43;;;;;;;7.20;6.50;;;14.80;99.90;;;;;;5044075;28;20233;-78
2023/04/16 13:17:34;;;;;;;6.88;6.07;;;14.60;99.90;;;;;;5043703;28;20648;-79
2023/04/16 13:20:23;;;;;;;8.93;6.60;;;14.60;99.90;;;;;;5000962;28;20225;-77
2023/04/16 13:23:12;;;;;;;7.22;6.53;;;14.60;99.90;;;;;;5039517;28;20320;-77
2023/04/16 13:26:02;;;;;;;7.22;6.18;;;14.70;99.90;;;;;;5046018;28;20575;-77
2023/04/16 13:28:51;;;;;;;10.43;6.35;;;15.10;99.90;;;;;;5045984;28;20367;-76
2023/04/16 13:31:40;;;;;;;7.45;6.70;;;15.20;99.90;;;;;;5040998;28;20237;-78
2023/04/16 13:34:30;;;;;;;7.70;6.82;;;15.20;99.90;;;;;;5039342;28;20226;-78
2023/04/16 13:37:19;;;;;;;8.38;6.75;;;15.30;99.90;;;;;;5028070;28;20260;-78
2023/04/16 13:40:09;;;;;;;8.23;7.43;;;15.60;99.90;;;;;;5012082;28;20454;-81
2023/04/16 13:42:58;;;;;;;9.35;7.80;;;15.40;99.90;;;;;;5025815;28;20225;-81
2023/04/16 13:45:47;;;;;;;8.38;7.57;;;15.50;99.90;;;;;;5015487;28;20622;-80
2023/04/16 13:48:36;;;;;;;8.13;7.32;;;15.40;99.90;;;;;;5010316;28;20232;-81
2023/04/16 13:51:27;;;;;;;7.60;6.85;;;15.50;99.90;;;;;;5017071;28;20268;-81
2023/04/16 13:54:16;;;;;;;7.88;7.03;;;15.10;99.90;;;;;;5029957;28;20232;-80
2023/04/16 13:57:05;;;;;;;8.07;6.80;;;15.10;99.90;;;;;;5031632;28;20229;-81
2023/04/16 13:59:54;;;;;;;8.13;6.80;;;15.10;99.90;;;;;;5015735;28;20225;-80
2023/04/16 14:02:44;;;;;;;10.23;8.02;;;15.10;99.90;;;;;;5038163;28;20315;-78
2023/04/16 14:05:34;;;;;;;7.22;6.53;;;15.10;99.90;;;;;;5033896;28;20221;-81
2023/04/16 14:08:24;;;;;;;7.50;6.80;;;15.00;99.90;;;;;;5036107;28;20243;-78
2023/04/16 14:11:13;;;;;;;8.82;6.75;;;14.80;99.90;;;;;;5038120;28;20228;-79
2023/04/16 14:14:02;;;;;;;8.20;7.40;;;14.80;99.90;;;;;;5010890;28;20605;-81
2023/04/16 14:16:51;;;;;;;8.38;7.47;;;14.70;99.90;;;;;;5035361;28;20256;-79
2023/04/16 14:19:40;;;;;;;8.70;7.80;;;14.70;99.90;;;;;;5038713;28;20270;-80
2023/04/16 14:22:29;;;;;;;7.88;6.90;;;14.70;99.90;;;;;;5034720;28;20229;-80
2023/04/16 14:25:19;;;;;;;8.80;7.90;;;14.70;99.90;;;;;;5026858;28;20346;-79
2023/04/16 14:28:08;;;;;;;8.40;7.55;;;14.70;99.90;;;;;;5036231;28;20794;-75
2023/04/16 14:30:57;;;;;;;8.70;7.43;;;14.70;99.90;;;;;;5019620;28;20259;-75
2023/04/16 14:33:46;;;;;;;7.55;6.85;;;14.90;99.90;;;;;;5037463;28;20214;-76
2023/04/16 14:36:36;;;;;;;7.22;6.63;;;14.90;99.90;;;;;;5037370;28;20226;-76
2023/04/16 14:39:24;;;;;;;7.97;6.45;;;14.70;99.90;;;;;;5041164;28;20228;-75
2023/04/16 14:42:15;;;;;;;7.57;6.88;;;14.70;99.90;;;;;;5050862;28;20218;-74
2023/04/16 14:45:05;;;;;;;8.25;7.20;;;14.80;99.90;;;;;;5009248;28;20230;-76